Time;durP1;ratioP1;P1;durP2;ratioP2;P2;SDS_P1;SDS_P2;PMS_P1;PMS_P2;Temp;Humidity;BMP_temperature;BMP_pressure;BME280_temperature;BME280_humidity;BME280_pressure;Samples;Min_cycle;Max_cycle;Signal;HPM_P1;HPM_P2
2022/08/19 00:01:21;;;;;;;7.65;4.18;;;;;;;22.97;48.32;93724.88;5063533;28;20013;-75
2022/08/19 00:03:47;;;;;;;5.57;3.75;;;;;;;22.94;48.61;93726.44;5063510;28;20092;-75
2022/08/19 00:06:13;;;;;;;5.47;3.47;;;;;;;22.90;48.19;93730.31;5063307;28;20059;-75
2022/08/19 00:08:39;;;;;;;7.22;4.25;;;;;;;22.87;48.29;93721.03;5063343;28;20066;-75
2022/08/19 00:11:05;;;;;;;6.13;3.67;;;;;;;22.81;48.36;93725.31;5063350;28;20250;-74
2022/08/19 00:13:30;;;;;;;5.68;3.90;;;;;;;22.79;48.13;93717.56;5063272;28;20017;-74
2022/08/19 00:15:57;;;;;;;6.53;3.50;;;;;;;22.77;48.64;93724.56;5063190;28;20040;-75
2022/08/19 00:18:22;;;;;;;7.43;3.55;;;;;;;22.75;48.64;93733.09;5063303;28;20043;-75
2022/08/19 00:20:48;;;;;;;7.35;3.50;;;;;;;22.72;46.80;93731.19;5063300;28;20162;-75
2022/08/19 00:23:14;;;;;;;9.10;3.92;;;;;;;22.76;46.30;93736.59;5063052;28;20039;-75
2022/08/19 00:25:40;;;;;;;5.68;3.63;;;;;;;22.77;46.19;93743.56;5062827;28;20043;-76
2022/08/19 00:28:06;;;;;;;4.72;3.30;;;;;;;22.76;46.33;93739.31;5062965;28;20025;-75
2022/08/19 00:30:31;;;;;;;5.32;3.75;;;;;;;22.78;45.85;93734.28;5063014;28;20024;-75
2022/08/19 00:32:57;;;;;;;7.57;3.35;;;;;;;22.81;46.83;93738.91;5063083;28;20274;-75
2022/08/19 00:35:23;;;;;;;8.48;4.03;;;;;;;22.79;45.89;93731.13;5062864;28;20031;-76
2022/08/19 00:37:49;;;;;;;6.00;3.70;;;;;;;22.80;46.05;93731.94;5063036;28;20315;-76
2022/08/19 00:40:16;;;;;;;6.80;3.90;;;;;;;22.80;46.79;93731.94;5063009;28;20021;-76
2022/08/19 00:42:42;;;;;;;7.63;3.55;;;;;;;22.80;46.45;93737.38;5062826;28;20262;-76
2022/08/19 00:45:17;;;;;;;7.25;4.18;;;;;;;22.81;46.77;93728.03;5062694;28;20048;-75
2022/08/19 00:47:44;;;;;;;6.28;4.10;;;;;;;22.77;47.76;93727.28;5062905;28;20051;-76
2022/08/19 00:50:12;;;;;;;7.90;3.67;;;;;;;22.70;48.70;93732.75;5062585;28;20068;-76
2022/08/19 00:52:45;;;;;;;10.13;3.65;;;;;;;22.67;48.85;93725.38;5062567;28;20025;-77
2022/08/19 00:55:15;;;;;;;7.93;4.28;;;;;;;22.62;49.06;93721.91;5062736;28;20049;-77
2022/08/19 00:57:47;;;;;;;12.20;4.07;;;;;;;22.60;49.15;93728.91;5062853;28;20017;-75
2022/08/19 01:00:16;;;;;;;8.48;4.40;;;;;;;22.54;49.54;93719.59;5062831;28;20021;-76
2022/08/19 01:02:43;;;;;;;6.55;3.88;;;;;;;22.44;50.02;93721.16;5062617;28;20025;-76
2022/08/19 01:05:14;;;;;;;4.93;3.70;;;;;;;22.44;49.81;93723.88;5062725;28;20036;-76
2022/08/19 01:07:41;;;;;;;6.20;3.60;;;;;;;22.36;49.81;93720.41;5062629;28;20033;-76
2022/08/19 01:10:11;;;;;;;6.43;4.00;;;;;;;22.31;49.86;93725.44;5062565;28;20092;-76
2022/08/19 01:12:38;;;;;;;4.85;3.63;;;;;;;22.28;50.31;93721.59;5062710;28;20020;-76
2022/08/19 01:15:08;;;;;;;5.95;3.85;;;;;;;22.23;50.11;93722.78;5062589;28;20027;-76
2022/08/19 01:17:37;;;;;;;7.28;4.35;;;;;;;22.20;50.37;93722.72;5062467;28;20082;-76
2022/08/19 01:20:04;;;;;;;8.63;3.90;;;;;;;22.11;50.42;93715.00;5062488;28;20020;-76
2022/08/19 01:22:54;;;;;;;4.68;3.33;;;;;;;22.08;50.37;93709.56;5062613;28;20025;-76
2022/08/19 01:25:26;;;;;;;7.28;4.43;;;;;;;22.04;50.11;93726.66;5062587;28;20017;-76
2022/08/19 01:27:52;;;;;;;5.82;3.55;;;;;;;22.03;50.23;93718.88;5062141;28;20040;-76
2022/08/19 01:30:22;;;;;;;5.97;3.85;;;;;;;22.00;50.10;93714.22;5062646;28;20262;-76
2022/08/19 01:32:49;;;;;;;5.55;3.90;;;;;;;21.98;50.35;93717.34;5062419;28;20073;-76
2022/08/19 01:35:17;;;;;;;8.48;3.67;;;;;;;21.99;49.82;93721.59;5062498;28;20025;-76
2022/08/19 01:37:46;;;;;;;5.70;3.90;;;;;;;22.02;49.40;93722.75;5064754;28;20021;-76
2022/08/19 01:40:11;;;;;;;6.20;4.05;;;;;;;22.04;49.58;93725.84;5066153;28;20283;-76
2022/08/19 01:42:37;;;;;;;10.52;4.60;;;;;;;22.03;50.01;93718.88;5066059;28;20033;-76
2022/08/19 01:45:04;;;;;;;9.48;4.13;;;;;;;22.01;50.11;93734.78;5066077;28;20025;-76
2022/08/19 01:47:30;;;;;;;6.97;4.25;;;;;;;22.01;49.81;93727.41;5065890;28;20311;-75
2022/08/19 01:49:55;;;;;;;11.45;5.15;;;;;;;21.98;49.48;93730.91;5065777;28;20105;-76
2022/08/19 01:52:21;;;;;;;7.18;3.92;;;;;;;21.95;49.49;93728.19;5064695;28;20048;-75
2022/08/19 01:54:46;;;;;;;10.30;4.55;;;;;;;21.94;49.75;93723.91;5065993;28;20266;-75
2022/08/19 01:57:14;;;;;;;5.20;3.70;;;;;;;21.93;49.71;93725.88;5065762;28;20028;-75
2022/08/19 01:59:42;;;;;;;8.00;3.97;;;;;;;21.88;50.35;93720.84;5065888;28;20055;-76
2022/08/19 02:02:08;;;;;;;7.05;4.15;;;;;;;21.86;50.33;93727.81;5065795;28;20021;-76
2022/08/19 02:04:34;;;;;;;5.40;3.85;;;;;;;21.82;51.09;93723.16;5065622;28;20341;-75
2022/08/19 02:06:59;;;;;;;6.63;4.30;;;;;;;21.81;51.63;93726.25;5065613;28;20327;-75
2022/08/19 02:09:25;;;;;;;10.65;4.13;;;;;;;21.73;51.69;93722.00;5065279;28;20263;-76
2022/08/19 02:11:50;;;;;;;6.18;4.47;;;;;;;21.69;52.03;93724.69;5065690;28;20021;-75
2022/08/19 02:14:16;;;;;;;7.78;4.90;;;;;;;21.67;52.38;93720.81;5065577;28;20036;-75
2022/08/19 02:16:41;;;;;;;7.57;4.72;;;;;;;21.60;52.48;93729.75;5065408;28;20033;-75
2022/08/19 02:19:07;;;;;;;6.10;3.75;;;;;;;21.52;52.05;93722.75;5065597;28;20334;-74
2022/08/19 02:21:33;;;;;;;5.63;4.10;;;;;;;21.51;51.01;93729.34;5065368;28;20028;-75
2022/08/19 02:23:59;;;;;;;9.35;4.07;;;;;;;21.50;50.85;93722.38;5065304;28;20357;-75
2022/08/19 02:26:26;;;;;;;7.07;3.83;;;;;;;21.39;50.98;93725.81;5065291;28;20033;-75
2022/08/19 02:28:52;;;;;;;7.00;4.82;;;;;;;21.37;51.75;93728.13;5065323;28;20215;-76
2022/08/19 02:31:20;;;;;;;5.85;4.13;;;;;;;21.35;51.50;93718.81;5065212;28;20025;-75
2022/08/19 02:33:47;;;;;;;8.43;4.53;;;;;;;21.32;52.46;93720.38;5065199;28;20092;-76
2022/08/19 02:36:14;;;;;;;8.18;4.82;;;;;;;21.35;52.84;93726.94;5064952;28;20036;-76
2022/08/19 02:38:41;;;;;;;11.52;4.38;;;;;;;21.35;52.46;93719.59;5065136;28;20029;-76
2022/08/19 02:41:11;;;;;;;4.88;3.85;;;;;;;21.34;52.53;93722.69;5065074;28;20021;-76
2022/08/19 02:43:38;;;;;;;6.07;3.65;;;;;;;21.29;52.96;93726.56;5064955;28;20021;-76
2022/08/19 02:46:17;;;;;;;6.25;3.85;;;;;;;21.24;53.10;93726.94;5064977;28;20029;-76
2022/08/19 02:48:43;;;;;;;12.50;3.95;;;;;;;21.18;53.31;93728.47;5064662;28;20104;-76
2022/08/19 02:51:15;;;;;;;8.68;4.03;;;;;;;21.14;53.48;93725.75;5064504;28;20059;-76
2022/08/19 02:53:40;;;;;;;6.45;4.40;;;;;;;21.12;53.58;93732.72;5064926;28;20028;-76
2022/08/19 02:56:07;;;;;;;8.20;5.22;;;;;;;21.10;53.31;93741.22;5064666;28;20385;-77
2022/08/19 02:58:33;;;;;;;12.70;4.60;;;;;;;21.09;53.66;93744.31;5064627;28;20040;-75
2022/08/19 03:00:58;;;;;;;9.65;4.03;;;;;;;21.06;53.85;93742.38;5064553;28;20219;-76
2022/08/19 03:03:25;;;;;;;9.60;4.75;;;;;;;20.99;54.24;93746.59;5064654;28;20044;-76
2022/08/19 03:05:50;;;;;;;5.05;3.88;;;;;;;20.96;54.68;93746.59;5064612;28;20029;-77
2022/08/19 03:08:16;;;;;;;5.43;4.18;;;;;;;20.93;55.36;93753.56;5064385;28;20025;-76
2022/08/19 03:10:46;;;;;;;5.53;4.25;;;;;;;20.88;55.64;93734.16;5064428;28;20029;-77
2022/08/19 03:13:17;;;;;;;9.50;4.30;;;;;;;20.80;55.71;93738.78;5064311;28;20032;-77
2022/08/19 03:15:44;;;;;;;7.07;4.47;;;;;;;20.81;56.01;93729.50;5064242;28;20017;-76
2022/08/19 03:18:11;;;;;;;6.97;4.53;;;;;;;20.73;56.27;93731.41;5064268;28;20100;-76
2022/08/19 03:20:48;;;;;;;5.20;3.97;;;;;;;20.70;56.36;93736.81;5064358;28;20024;-76
2022/08/19 03:23:15;;;;;;;6.22;4.07;;;;;;;20.63;56.44;93724.78;5064257;28;20033;-76
2022/08/19 03:25:44;;;;;;;7.47;4.75;;;;;;;20.60;56.64;93719.38;5064225;28;20025;-76
2022/08/19 03:28:11;;;;;;;6.30;4.55;;;;;;;20.56;56.89;93724.72;5064100;28;20059;-76
2022/08/19 03:30:39;;;;;;;7.57;4.63;;;;;;;20.55;56.91;93728.59;5063959;28;20028;-76
2022/08/19 03:33:05;;;;;;;6.28;4.50;;;;;;;20.51;57.24;93733.22;5064091;28;20094;-76
2022/08/19 03:35:30;;;;;;;7.70;4.50;;;;;;;20.50;57.24;93734.38;5064005;28;20024;-75
2022/08/19 03:37:58;;;;;;;7.15;5.05;;;;;;;20.43;57.68;93723.50;5063890;28;20029;-76
2022/08/19 03:40:24;;;;;;;11.55;5.13;;;;;;;20.40;57.40;93730.44;5063746;28;20088;-74
2022/08/19 03:42:49;;;;;;;13.88;6.00;;;;;;;20.38;57.48;93726.56;5063980;28;20032;-74
2022/08/19 03:45:15;;;;;;;12.27;5.03;;;;;;;20.37;57.96;93733.13;5063804;28;20322;-75
2022/08/19 03:47:40;;;;;;;16.50;6.57;;;;;;;20.33;57.83;93741.22;5063751;28;20074;-74
2022/08/19 03:50:06;;;;;;;12.75;5.82;;;;;;;20.30;58.19;93744.69;5063339;28;20049;-74
2022/08/19 03:52:32;;;;;;;10.70;6.57;;;;;;;20.26;58.01;93754.72;5063707;28;20092;-74
2022/08/19 03:54:57;;;;;;;10.93;5.93;;;;;;;20.26;58.65;93762.84;5063589;28;20327;-75
2022/08/19 03:57:23;;;;;;;10.95;5.43;;;;;;;20.26;58.01;93757.44;5063769;28;20323;-74
2022/08/19 03:59:48;;;;;;;12.52;5.65;;;;;;;20.29;56.87;93753.19;5062967;28;20021;-74
2022/08/19 04:02:14;;;;;;;6.97;4.97;;;;;;;20.32;56.29;93757.84;5063230;28;20068;-75
2022/08/19 04:04:42;;;;;;;7.97;5.20;;;;;;;20.39;56.30;93763.31;5063541;28;20075;-75
2022/08/19 04:07:10;;;;;;;8.77;5.25;;;;;;;20.42;55.87;93762.56;5063353;28;20029;-75
2022/08/19 04:09:36;;;;;;;13.80;5.35;;;;;;;20.44;56.25;93765.66;5063200;28;20043;-74
2022/08/19 04:12:05;;;;;;;7.97;5.25;;;;;;;20.50;56.16;93766.84;5063301;28;20032;-74
2022/08/19 04:14:31;;;;;;;9.55;5.80;;;;;;;20.50;56.75;93768.78;5063217;28;20029;-74
2022/08/19 04:16:58;;;;;;;10.48;5.68;;;;;;;20.57;57.37;93772.31;5063034;28;20025;-74
2022/08/19 04:19:24;;;;;;;7.32;5.10;;;;;;;20.60;57.54;93768.13;5063292;28;20093;-74
2022/08/19 04:21:52;;;;;;;11.95;5.05;;;;;;;20.64;57.54;93769.69;5062973;28;20212;-75
2022/08/19 04:24:18;;;;;;;9.23;5.90;;;;;;;20.71;57.40;93768.94;5063044;28;20070;-75
2022/08/19 04:26:44;;;;;;;11.32;5.65;;;;;;;20.72;57.97;93767.78;5062965;28;20270;-74
2022/08/19 04:29:14;;;;;;;13.52;5.47;;;;;;;20.78;57.93;93779.00;5062761;28;20025;-74
2022/08/19 04:31:40;;;;;;;8.65;5.30;;;;;;;20.83;58.30;93776.72;5062937;28;20028;-74
2022/08/19 04:34:08;;;;;;;8.15;5.30;;;;;;;20.84;58.21;93774.78;5062929;28;20029;-75
2022/08/19 04:36:36;;;;;;;9.70;5.60;;;;;;;20.91;58.17;93774.06;5061743;28;20039;-74
2022/08/19 04:39:06;;;;;;;8.82;5.70;;;;;;;21.00;57.19;93766.34;5062879;28;20032;-75
2022/08/19 04:44:18;;;;;;;11.98;5.20;;;;;;;21.13;56.97;93762.13;5062773;28;20349;-75
2022/08/19 04:46:46;;;;;;;9.60;5.28;;;;;;;21.22;56.36;93764.47;5063013;28;20045;-75
2022/08/19 04:49:12;;;;;;;10.15;5.03;;;;;;;21.32;56.28;93773.81;5062789;28;20039;-75
2022/08/19 04:51:42;;;;;;;8.93;5.60;;;;;;;21.39;56.76;93776.53;5062590;28;20284;-74
2022/08/19 04:54:08;;;;;;;17.17;5.60;;;;;;;21.43;56.33;93775.44;5062482;28;20028;-75
2022/08/19 04:56:34;;;;;;;20.48;7.10;;;;;;;21.50;55.61;93779.31;5062740;28;20023;-74
2022/08/19 04:59:03;;;;;;;21.27;6.45;;;;;;;21.54;55.34;93780.88;5062747;28;20033;-74
2022/08/19 05:01:32;;;;;;;22.65;7.20;;;;;;;21.61;54.89;93772.72;5062791;28;20024;-75
2022/08/19 05:04:01;;;;;;;12.88;6.50;;;;;;;21.65;54.74;93775.44;5062700;28;20411;-75
2022/08/19 05:06:28;;;;;;;26.23;8.23;;;;;;;21.72;54.78;93772.75;5062513;28;20029;-74
2022/08/19 05:08:54;;;;;;;16.08;8.25;;;;;;;21.78;54.71;93790.19;5062582;28;20319;-74
2022/08/19 05:11:25;;;;;;;21.50;7.13;;;;;;;21.81;54.93;93785.94;5062652;28;20032;-74
2022/08/19 05:13:51;;;;;;;12.32;6.65;;;;;;;21.86;54.64;93780.16;5066725;28;20048;-75
2022/08/19 05:16:19;;;;;;;18.80;6.43;;;;;;;21.92;55.39;93784.03;5066579;28;20033;-75
2022/08/19 05:24:14;;;;;;;27.17;7.00;;;;;;;22.14;52.49;93782.06;5066572;28;20023;-76
2022/08/19 05:26:45;;;;;;;17.88;6.60;;;;;;;22.22;52.54;93786.31;5066297;28;20032;-76
2022/08/19 05:29:10;;;;;;;19.30;6.28;;;;;;;22.28;51.98;93788.69;5066202;28;20315;-76
2022/08/19 05:31:38;;;;;;;24.38;6.68;;;;;;;22.35;52.90;93786.75;5066006;28;20025;-76
2022/08/19 05:34:04;;;;;;;8.85;5.60;;;;;;;22.38;51.78;93785.94;5066210;28;20025;-68
2022/08/19 05:36:40;;;;;;;14.20;5.78;;;;;;;22.38;49.67;93790.63;5065872;28;20016;-69
2022/08/19 05:39:07;;;;;;;13.27;6.75;;;;;;;22.34;50.54;93779.00;5065847;28;20028;-69
2022/08/19 05:41:34;;;;;;;12.98;6.38;;;;;;;22.38;51.48;93785.19;5065730;28;20250;-70
2022/08/19 05:44:06;;;;;;;21.83;6.60;;;;;;;22.32;51.71;93794.88;5065706;28;20074;-70
2022/08/19 05:46:32;;;;;;;20.00;6.57;;;;;;;22.35;51.48;93780.56;5065662;28;20303;-70
2022/08/19 05:48:58;;;;;;;25.10;7.25;;;;;;;22.40;51.92;93791.00;5065800;28;20127;-70
2022/08/19 05:51:24;;;;;;;28.30;7.97;;;;;;;22.44;52.37;93792.53;5065210;28;20047;-70
2022/08/19 05:53:50;;;;;;;15.50;7.13;;;;;;;22.49;52.76;93785.97;5065255;28;20039;-70
2022/08/19 05:56:17;;;;;;;21.13;8.52;;;;;;;22.55;52.08;93792.53;5065318;28;20268;-70
2022/08/19 05:58:44;;;;;;;15.07;8.65;;;;;;;22.64;52.41;93786.69;5065306;28;20087;-70
2022/08/19 06:01:13;;;;;;;20.70;7.95;;;;;;;22.69;52.99;93782.81;5065293;28;20025;-70
2022/08/19 06:03:39;;;;;;;19.38;8.18;;;;;;;22.80;52.46;93786.28;5065056;28;20029;-70
2022/08/19 06:06:09;;;;;;;25.83;8.18;;;;;;;22.88;51.49;93797.88;5065038;28;20099;-72
2022/08/19 06:08:37;;;;;;;17.13;8.23;;;;;;;22.98;50.80;93786.22;5064903;28;20315;-69
2022/08/19 06:11:24;;;;;;;27.48;10.50;;;;;;;23.08;52.05;93799.03;5065024;28;20029;-69
2022/08/19 06:13:52;;;;;;;19.27;7.18;;;;;;;23.14;51.71;93799.38;5064803;28;20013;-73
2022/08/19 06:16:22;;;;;;;14.90;7.05;;;;;;;23.22;50.60;93790.03;5065145;28;20266;-72
2022/08/19 06:18:52;;;;;;;23.20;6.95;;;;;;;23.32;50.80;93797.34;5064936;28;20435;-69
2022/08/19 06:21:23;;;;;;;18.58;6.38;;;;;;;23.39;50.21;93793.84;5064925;28;20246;-73
2022/08/19 06:23:50;;;;;;;17.52;6.80;;;;;;;23.42;49.34;93791.09;5064227;28;20024;-73
2022/08/19 06:26:18;;;;;;;13.02;6.38;;;;;;;23.47;49.06;93789.13;5064617;28;20312;-69
2022/08/19 06:28:46;;;;;;;10.45;6.18;;;;;;;23.60;49.57;93793.72;5064405;28;20102;-70
2022/08/19 06:31:14;;;;;;;18.15;5.72;;;;;;;23.74;48.91;93795.59;5063856;28;20029;-70
2022/08/19 06:33:40;;;;;;;15.23;5.63;;;;;;;23.88;49.72;93796.69;5064296;28;20095;-70
2022/08/19 06:36:06;;;;;;;7.78;5.15;;;;;;;24.02;48.81;93810.22;5064182;28;20025;-70
2022/08/19 06:38:33;;;;;;;9.13;4.93;;;;;;;24.11;47.95;93798.84;5064282;28;20096;-70
2022/08/19 06:41:05;;;;;;;11.25;5.32;;;;;;;24.24;47.55;93797.19;5064400;28;20223;-70
2022/08/19 06:43:31;;;;;;;13.48;5.40;;;;;;;24.38;46.75;93804.47;5064373;28;20391;-70
2022/08/19 06:45:56;;;;;;;13.70;5.68;;;;;;;24.42;46.57;93802.47;5064511;28;20044;-70
2022/08/19 06:48:22;;;;;;;12.27;6.28;;;;;;;24.54;45.86;93798.53;5064331;28;20036;-81
2022/08/19 06:50:49;;;;;;;12.15;5.75;;;;;;;24.67;45.92;93801.50;5064745;28;20433;-89
2022/08/19 06:53:15;;;;;;;14.45;5.88;;;;;;;24.76;45.92;93801.81;5064702;28;20066;-79
2022/08/19 06:55:40;;;;;;;15.90;6.40;;;;;;;24.87;45.71;93799.72;5064525;28;20045;-79
2022/08/19 06:58:06;;;;;;;13.30;6.25;;;;;;;24.98;45.55;93805.09;5064296;28;20025;-77
2022/08/19 07:00:32;;;;;;;9.95;5.72;;;;;;;25.06;44.99;93806.56;5064354;28;20311;-76
2022/08/19 07:02:58;;;;;;;17.27;6.22;;;;;;;25.17;44.78;93809.91;5064340;28;20021;-77
2022/08/19 07:05:23;;;;;;;10.93;6.22;;;;;;;25.27;44.27;93804.78;5064641;28;20028;-79
2022/08/19 07:07:49;;;;;;;12.85;5.70;;;;;;;25.34;44.37;93804.69;5064302;28;20074;-74
2022/08/19 07:10:15;;;;;;;11.35;6.63;;;;;;;25.38;44.41;93808.94;5064081;28;20280;-75
2022/08/19 07:12:40;;;;;;;19.33;9.07;;;;;;;25.46;44.62;93806.88;5063878;28;20430;-77
2022/08/19 07:15:08;;;;;;;11.68;5.90;;;;;;;25.42;44.42;93804.22;5063943;28;20374;-75
2022/08/19 07:17:38;;;;;;;9.65;5.93;;;;;;;25.52;44.63;93805.22;5064152;28;20224;-76
2022/08/19 07:20:06;;;;;;;11.13;6.35;;;;;;;25.57;44.06;93812.22;5064100;28;20048;-77
2022/08/19 07:22:33;;;;;;;13.77;5.72;;;;;;;25.57;43.94;93812.22;5063770;28;20059;-74
2022/08/19 07:24:59;;;;;;;14.00;6.28;;;;;;;25.63;44.27;93816.03;5064100;28;20088;-77
2022/08/19 07:27:25;;;;;;;13.93;6.10;;;;;;;25.67;43.66;93808.56;5064014;28;20028;-76
2022/08/19 07:29:52;;;;;;;9.93;5.75;;;;;;;25.71;43.21;93806.56;5063831;28;20075;-76
2022/08/19 07:32:18;;;;;;;10.85;5.78;;;;;;;25.78;43.11;93811.13;5063688;28;20039;-75
2022/08/19 07:34:45;;;;;;;12.43;6.25;;;;;;;25.84;43.25;93812.22;5063093;28;20021;-74
2022/08/19 07:37:11;;;;;;;14.35;5.25;;;;;;;25.97;43.03;93806.97;5063818;28;20215;-73
2022/08/19 07:39:38;;;;;;;10.18;5.75;;;;;;;26.04;42.57;93809.63;5063823;28;20023;-73
2022/08/19 07:42:09;;;;;;;14.30;5.88;;;;;;;26.17;42.85;93813.31;5063795;28;20036;-73
2022/08/19 07:44:35;;;;;;;13.35;5.65;;;;;;;26.30;42.39;93812.75;5063939;28;20336;-72
2022/08/19 07:47:02;;;;;;;13.93;5.22;;;;;;;26.39;42.18;93799.31;5063796;28;20219;-73
2022/08/19 07:49:28;;;;;;;14.05;5.30;;;;;;;26.52;41.84;93804.94;5063832;28;20024;-72
2022/08/19 07:52:04;;;;;;;13.32;6.60;;;;;;;26.61;41.60;93813.41;5063409;28;20032;-72
2022/08/19 07:54:34;;;;;;;8.98;5.13;;;;;;;26.63;41.14;93813.78;5063817;28;20028;-73
2022/08/19 07:57:00;;;;;;;13.55;5.82;;;;;;;26.73;41.58;93807.34;5063647;28;20017;-72
2022/08/19 07:59:26;;;;;;;12.75;5.40;;;;;;;26.84;42.33;93811.84;5063533;28;20036;-75
2022/08/19 08:01:52;;;;;;;17.90;6.40;;;;;;;26.93;40.21;93812.09;5062276;28;20032;-75
2022/08/19 08:09:48;;;;;;;14.07;5.93;;;;;;;27.13;39.59;93809.34;5063132;28;20028;-75
2022/08/19 08:12:28;;;;;;;12.45;6.20;;;;;;;27.25;39.91;93805.25;5063313;28;20021;-76
2022/08/19 08:14:57;;;;;;;9.98;5.50;;;;;;;27.34;40.01;93803.50;5063233;28;20222;-74
2022/08/19 08:17:26;;;;;;;14.50;5.30;;;;;;;27.39;39.82;93802.22;5063183;28;20092;-75
2022/08/19 08:19:51;;;;;;;16.35;4.82;;;;;;;27.45;39.95;93805.25;5063372;28;20219;-73
2022/08/19 08:25:15;;;;;;;14.20;5.22;;;;;;;27.64;38.47;93795.44;5063133;28;20070;-75
2022/08/19 08:27:43;;;;;;;19.02;4.93;;;;;;;27.73;38.18;93793.69;5062955;28;20337;-73
2022/08/19 08:30:15;;;;;;;13.57;6.68;;;;;;;27.85;37.64;93799.69;5062902;28;20282;-73
2022/08/19 08:32:41;;;;;;;;;;;;;;;27.96;36.47;93800.25;5063474;28;20031;-73
2022/08/19 08:35:09;;;;;;;12.93;4.10;;;;;;;27.97;34.73;93791.59;5062890;28;20098;-73
2022/08/19 08:37:35;;;;;;;18.00;4.38;;;;;;;28.04;34.64;93793.41;5062629;28;20028;-73
2022/08/19 08:40:18;;;;;;;14.57;4.93;;;;;;;28.07;35.64;93795.31;5062967;28;20342;-73
2022/08/19 08:42:58;;;;;;;9.07;4.15;;;;;;;28.13;34.38;93788.13;5062833;28;20075;-73
2022/08/19 08:45:24;;;;;;;11.90;3.92;;;;;;;28.27;34.00;93797.97;5062788;28;20032;-73
2022/08/19 08:47:53;;;;;;;12.00;4.38;;;;;;;28.37;34.03;93787.94;5061777;28;20387;-73
2022/08/19 08:50:25;;;;;;;10.95;3.67;;;;;;;28.45;32.68;93789.28;5062460;28;20048;-73
2022/08/19 08:52:56;;;;;;;6.95;4.25;;;;;;;28.53;33.20;93793.44;5062660;28;20016;-74
2022/08/19 08:55:26;;;;;;;10.00;3.70;;;;;;;28.61;32.90;93783.06;5062458;28;20097;-74
2022/08/19 08:57:58;;;;;;;13.60;4.93;;;;;;;28.74;32.04;93783.09;5062545;28;20088;-72
2022/08/19 09:00:30;;;;;;;4.75;3.00;;;;;;;28.89;30.42;93775.28;5062595;28;20017;-73
2022/08/19 09:02:57;;;;;;;12.30;4.18;;;;;;;28.93;31.53;93776.72;5062956;28;20333;-73
2022/08/19 09:05:30;;;;;;;10.55;3.85;;;;;;;29.05;32.28;93777.22;5062652;28;20040;-75
2022/08/19 09:08:27;;;;;;;8.10;3.55;;;;;;;29.17;30.66;93769.06;5062902;28;20033;-75
2022/08/19 09:10:55;;;;;;;13.30;4.95;;;;;;;29.25;31.38;93775.13;5062546;28;20098;-75
2022/08/19 09:13:58;;;;;;;9.57;4.43;;;;;;;29.27;31.29;93769.16;5062546;28;20205;-76
2022/08/19 09:16:27;;;;;;;8.95;4.07;;;;;;;29.27;31.89;93772.69;5051460;28;20125;-75
2022/08/19 09:18:57;;;;;;;10.75;3.90;;;;;;;29.40;31.24;93769.97;5062516;28;20215;-73
2022/08/19 09:21:25;;;;;;;6.25;3.53;;;;;;;29.54;31.10;93763.31;5062476;28;20036;-71
2022/08/19 09:23:51;;;;;;;6.03;3.50;;;;;;;29.63;30.57;93757.91;5062540;28;20025;-72
2022/08/19 09:26:22;;;;;;;13.65;3.92;;;;;;;29.78;30.13;93767.31;5062314;28;20021;-72
2022/08/19 09:28:52;;;;;;;13.77;3.83;;;;;;;29.83;29.51;93757.75;5062144;28;20031;-73
2022/08/19 09:31:22;;;;;;;8.43;3.88;;;;;;;29.89;29.67;93750.50;5062393;28;20033;-74
2022/08/19 09:33:48;;;;;;;10.63;3.65;;;;;;;29.97;29.78;93753.78;5062206;28;20029;-73
2022/08/19 09:36:16;;;;;;;7.32;3.10;;;;;;;30.06;29.10;93742.88;5062205;28;20096;-73
2022/08/19 09:38:42;;;;;;;7.28;3.90;;;;;;;30.17;28.69;93753.56;5062009;28;20220;-73
2022/08/19 09:41:13;;;;;;;6.30;3.05;;;;;;;30.28;27.32;93751.22;5062174;28;20036;-73
2022/08/19 09:43:39;;;;;;;7.68;3.25;;;;;;;30.38;27.89;93755.63;5062256;28;20032;-74
2022/08/19 09:46:06;;;;;;;8.32;2.97;;;;;;;30.48;28.01;93750.22;5062269;28;20072;-74
2022/08/19 09:48:33;;;;;;;7.78;3.05;;;;;;;30.57;27.28;93751.09;5061936;28;20036;-73
2022/08/19 09:51:20;;;;;;;10.65;2.85;;;;;;;30.74;26.86;93739.91;5062099;28;20116;-73
2022/08/19 09:53:47;;;;;;;9.45;3.30;;;;;;;30.69;26.45;93745.97;5062062;28;20100;-73
2022/08/19 09:56:13;;;;;;;6.35;3.17;;;;;;;30.80;26.79;93746.38;5062083;28;20025;-73
2022/08/19 09:58:39;;;;;;;8.00;3.40;;;;;;;30.90;27.60;93739.00;5064401;28;20028;-74
2022/08/19 10:01:07;;;;;;;11.07;3.10;;;;;;;30.97;26.63;93742.25;5065739;28;20063;-74
2022/08/19 10:03:35;;;;;;;5.90;3.72;;;;;;;30.99;25.55;93736.31;5065734;28;20037;-73
2022/08/19 10:06:04;;;;;;;13.25;3.83;;;;;;;30.98;25.81;93732.78;5065651;28;20021;-73
2022/08/19 10:08:36;;;;;;;5.50;3.25;;;;;;;30.99;26.02;93726.06;5065722;28;20024;-73
2022/08/19 10:11:03;;;;;;;8.20;3.20;;;;;;;30.97;26.73;93730.47;5065310;28;20099;-73
2022/08/19 10:13:31;;;;;;;6.90;3.55;;;;;;;30.96;26.12;93731.72;5065659;28;20017;-74
2022/08/19 10:16:08;;;;;;;5.70;3.25;;;;;;;31.08;26.14;93722.63;5065692;28;20036;-74
2022/08/19 10:18:34;;;;;;;12.65;3.17;;;;;;;31.17;25.78;93730.16;5064381;28;20222;-74
2022/08/19 10:21:10;;;;;;;7.90;3.45;;;;;;;31.21;25.63;93719.78;5065415;28;20039;-74
2022/08/19 10:23:38;;;;;;;8.65;3.90;;;;;;;31.33;26.28;93718.94;5065269;28;20078;-75
2022/08/19 10:26:07;;;;;;;7.30;3.08;;;;;;;31.38;24.71;93718.34;5065296;28;20021;-73
2022/08/19 10:28:36;;;;;;;4.63;3.22;;;;;;;31.46;24.66;93720.88;5065371;28;20029;-74
2022/08/19 10:31:08;;;;;;;7.60;3.17;;;;;;;31.43;24.63;93710.72;5065076;28;20389;-77
2022/08/19 10:33:35;;;;;;;9.32;3.28;;;;;;;31.47;24.22;93708.63;5064994;28;20016;-76
2022/08/19 10:36:05;;;;;;;14.93;3.50;;;;;;;31.48;25.04;93704.66;5065184;28;20025;-76
2022/08/19 10:38:31;;;;;;;8.38;3.75;;;;;;;31.58;24.61;93711.75;5064908;28;20223;-77
2022/08/19 10:40:56;;;;;;;6.80;3.33;;;;;;;31.63;24.88;93708.41;5065367;28;20048;-76
2022/08/19 10:43:22;;;;;;;7.43;3.42;;;;;;;31.74;25.51;93708.75;5065031;28;20021;-76
2022/08/19 10:45:58;;;;;;;7.72;3.60;;;;;;;31.87;25.27;93700.38;5065077;28;20024;-76
2022/08/19 10:48:24;;;;;;;11.38;3.70;;;;;;;31.93;23.78;93703.28;5064751;28;20024;-75
2022/08/19 10:53:34;;;;;;;7.90;3.53;;;;;;;32.05;22.63;93698.91;5064603;28;20100;-76
2022/08/19 10:58:44;;;;;;;6.28;3.45;;;;;;;31.90;23.84;93698.72;5064649;28;20028;-78
2022/08/19 11:01:09;;;;;;;6.65;3.78;;;;;;;31.91;24.25;93694.72;5064814;28;20092;-73
2022/08/19 11:03:35;;;;;;;4.55;3.25;;;;;;;31.80;23.59;93697.91;5063475;28;20021;-73
2022/08/19 11:06:03;;;;;;;13.00;3.30;;;;;;;31.72;24.17;93711.19;5064604;28;20043;-73
2022/08/19 11:08:30;;;;;;;6.72;3.20;;;;;;;31.78;23.91;93703.88;5064629;28;20055;-74
2022/08/19 11:11:00;;;;;;;8.70;3.53;;;;;;;31.81;24.61;93701.41;5064621;28;20024;-72
2022/08/19 11:13:33;;;;;;;5.60;3.72;;;;;;;31.90;24.65;93701.47;5064718;28;20158;-73
2022/08/19 11:16:00;;;;;;;8.88;3.55;;;;;;;31.93;24.61;93684.00;5064562;28;20029;-73
2022/08/19 11:18:26;;;;;;;8.05;3.65;;;;;;;31.95;23.83;93695.34;5064570;28;20012;-73
2022/08/19 11:20:52;;;;;;;13.60;4.65;;;;;;;32.06;24.87;93701.22;5064458;28;20025;-74
2022/08/19 11:23:18;;;;;;;10.48;3.85;;;;;;;32.17;23.60;93693.28;5064165;28;20032;-73
2022/08/19 11:25:45;;;;;;;13.23;3.47;;;;;;;32.16;23.41;93697.28;5064252;28;20036;-73
2022/08/19 11:28:11;;;;;;;10.05;3.75;;;;;;;32.18;23.40;93694.06;5064081;28;20032;-73
2022/08/19 11:30:37;;;;;;;5.20;3.13;;;;;;;32.24;24.09;93683.97;5063980;28;20032;-73
2022/08/19 11:33:03;;;;;;;6.78;3.60;;;;;;;32.33;24.68;93692.22;5062896;28;20376;-74
2022/08/19 11:35:28;;;;;;;7.18;3.72;;;;;;;32.55;23.62;93680.34;5064173;28;20025;-73
2022/08/19 11:37:55;;;;;;;7.40;3.95;;;;;;;32.62;24.64;93679.25;5063944;28;20024;-72
2022/08/19 11:40:21;;;;;;;12.90;4.15;;;;;;;32.83;23.99;93688.59;5063777;28;20027;-73
2022/08/19 11:42:56;;;;;;;11.60;4.07;;;;;;;33.03;23.91;93675.06;5064091;28;20024;-73
2022/08/19 11:45:26;;;;;;;12.00;3.42;;;;;;;33.22;24.35;93670.31;5063708;28;20032;-74
2022/08/19 11:47:52;;;;;;;7.85;3.47;;;;;;;33.39;23.76;93673.47;5063797;28;20330;-74
2022/08/19 11:50:17;;;;;;;11.75;3.35;;;;;;;33.46;22.61;93662.09;5063488;28;20044;-73
2022/08/19 11:52:44;;;;;;;9.95;3.58;;;;;;;33.45;23.88;93668.84;5063666;28;20043;-73
2022/08/19 11:55:10;;;;;;;9.95;3.40;;;;;;;33.57;23.90;93664.38;5063708;28;20020;-73